Time;durP1;ratioP1;P1;durP2;ratioP2;P2;SDS_P1;SDS_P2;PMS_P1;PMS_P2;Temp;Humidity;BMP_temperature;BMP_pressure;BME280_temperature;BME280_humidity;BME280_pressure;Samples;Min_cycle;Max_cycle;Signal;HPM_P1;HPM_P2
2022/03/01 00:01:34;;;;;;;8.60;6.20;;;-1.50;96.30;;;;;;5031612;28;20488;-52
2022/03/01 00:04:01;;;;;;;10.97;6.27;;;-1.50;96.60;;;;;;5031369;28;20539;-52
2022/03/01 00:06:28;;;;;;;8.20;4.63;;;-1.30;96.80;;;;;;5031622;28;20478;-51
2022/03/01 00:08:55;;;;;;;7.93;5.30;;;-1.20;96.20;;;;;;5031406;28;20959;-52
2022/03/01 00:11:24;;;;;;;9.57;5.80;;;-1.10;95.70;;;;;;5031820;28;20466;-54
2022/03/01 00:13:51;;;;;;;6.10;4.90;;;-0.80;95.70;;;;;;5031403;28;21067;-53
2022/03/01 00:16:19;;;;;;;7.77;6.03;;;-1.00;94.90;;;;;;5031132;28;20495;-53
2022/03/01 00:18:47;;;;;;;6.60;5.60;;;-1.30;95.00;;;;;;5031745;28;20446;-54
2022/03/01 00:21:14;;;;;;;6.10;5.03;;;-1.20;95.40;;;;;;5031362;28;20446;-52
2022/03/01 00:23:41;;;;;;;6.47;5.17;;;-0.90;95.40;;;;;;5031207;28;21029;-52
2022/03/01 00:26:08;;;;;;;7.00;5.13;;;-0.80;95.10;;;;;;5031484;28;20515;-52
2022/03/01 00:28:36;;;;;;;7.97;5.10;;;-0.90;94.90;;;;;;5031083;28;20491;-48
2022/03/01 00:31:04;;;;;;;6.20;5.67;;;-0.90;95.00;;;;;;5030878;28;20481;-54
2022/03/01 00:36:00;;;;;;;7.93;6.70;;;-0.90;94.70;;;;;;5052349;28;20475;-53
2022/03/01 00:38:27;;;;;;;7.77;5.33;;;-0.70;95.10;;;;;;5053767;28;20896;-52
2022/03/01 00:40:55;;;;;;;9.20;6.60;;;-0.50;94.80;;;;;;5053073;28;20477;-53
2022/03/01 00:43:22;;;;;;;8.70;6.50;;;-0.40;94.60;;;;;;5053480;28;20468;-54
2022/03/01 00:45:51;;;;;;;7.73;6.03;;;-0.20;94.50;;;;;;5053321;28;20495;-54
2022/03/01 00:48:18;;;;;;;7.83;6.97;;;-0.10;94.10;;;;;;5053355;28;20473;-54
2022/03/01 00:50:46;;;;;;;6.50;5.30;;;-0.10;93.60;;;;;;5053226;28;20972;-53
2022/03/01 00:53:13;;;;;;;7.07;5.47;;;0.00;93.60;;;;;;5052964;28;20505;-54
2022/03/01 00:55:40;;;;;;;5.97;4.70;;;0.00;93.00;;;;;;5053514;28;20484;-53
2022/03/01 00:58:07;;;;;;;6.43;5.03;;;0.10;92.80;;;;;;5053366;28;20874;-53
2022/03/01 01:00:35;;;;;;;5.77;4.57;;;0.10;92.90;;;;;;5053530;28;20475;-53
2022/03/01 01:03:03;;;;;;;7.43;5.57;;;0.00;92.90;;;;;;5053332;28;20583;-53
2022/03/01 01:05:31;;;;;;;6.10;5.40;;;-0.20;92.60;;;;;;5053409;28;20463;-54
2022/03/01 01:07:57;;;;;;;6.67;5.23;;;-0.80;92.20;;;;;;5052922;28;20472;-54
2022/03/01 01:10:24;;;;;;;7.03;5.80;;;-0.70;92.90;;;;;;5052697;28;20472;-53
2022/03/01 01:12:51;;;;;;;6.00;5.40;;;-0.50;93.30;;;;;;5053056;28;20473;-54
2022/03/01 01:15:20;;;;;;;8.27;4.70;;;-0.40;93.10;;;;;;5053042;28;20499;-58
2022/03/01 01:17:47;;;;;;;9.67;5.70;;;-0.40;93.40;;;;;;5052687;28;20472;-54
2022/03/01 01:20:16;;;;;;;6.90;5.60;;;-0.40;93.30;;;;;;5052898;28;20478;-53
2022/03/01 01:22:44;;;;;;;7.27;5.30;;;-0.40;93.00;;;;;;5052651;28;20469;-54
2022/03/01 01:25:14;;;;;;;6.33;5.77;;;-0.30;93.00;;;;;;5052735;28;20473;-54
2022/03/01 01:27:42;;;;;;;7.47;6.10;;;-0.40;93.20;;;;;;5055562;28;20453;-55
2022/03/01 01:30:11;;;;;;;8.33;6.33;;;-0.40;93.50;;;;;;5056332;28;20441;-54
2022/03/01 01:32:40;;;;;;;6.43;5.20;;;-0.30;93.50;;;;;;5056254;28;20560;-54
2022/03/01 01:35:09;;;;;;;7.57;5.67;;;-0.30;93.40;;;;;;5056466;28;20474;-54
2022/03/01 01:37:38;;;;;;;6.23;5.00;;;-0.20;93.20;;;;;;5056187;28;20937;-54
2022/03/01 01:40:07;;;;;;;6.43;5.37;;;-0.20;93.10;;;;;;5055504;28;20449;-56
2022/03/01 01:42:34;;;;;;;7.47;5.23;;;-0.20;93.00;;;;;;5056146;28;20897;-55
2022/03/01 01:45:02;;;;;;;6.33;5.00;;;-0.30;92.90;;;;;;5055831;28;20504;-54
2022/03/01 01:47:29;;;;;;;6.30;5.30;;;-0.30;92.90;;;;;;5056431;28;20484;-55
2022/03/01 01:49:56;;;;;;;5.90;5.17;;;-0.40;93.10;;;;;;5055808;28;20539;-60
2022/03/01 01:52:24;;;;;;;6.50;5.30;;;-0.50;92.70;;;;;;5055545;28;20543;-54
2022/03/01 01:54:52;;;;;;;8.30;5.70;;;-0.50;92.70;;;;;;5055591;28;20503;-55
2022/03/01 01:57:21;;;;;;;7.53;5.47;;;-0.80;92.20;;;;;;5056309;28;20483;-55
2022/03/01 01:59:49;;;;;;;9.07;6.03;;;-1.50;92.30;;;;;;5056213;28;20465;-55
2022/03/01 02:02:18;;;;;;;7.03;5.33;;;-1.80;93.50;;;;;;5056028;28;20477;-55
2022/03/01 02:04:45;;;;;;;6.27;5.43;;;-2.00;93.80;;;;;;5055611;28;20993;-55
2022/03/01 02:07:13;;;;;;;5.30;4.80;;;-2.20;94.00;;;;;;5055307;28;20512;-54
2022/03/01 02:09:40;;;;;;;6.13;5.43;;;-2.10;94.30;;;;;;5055509;28;20480;-57
2022/03/01 02:12:09;;;;;;;6.33;5.00;;;-2.20;93.90;;;;;;5055902;28;20443;-54
2022/03/01 02:14:38;;;;;;;6.43;5.40;;;-2.30;94.10;;;;;;5055140;28;20515;-59
2022/03/01 02:17:08;;;;;;;7.60;5.27;;;-2.00;94.90;;;;;;5054524;28;20448;-55
2022/03/01 02:19:35;;;;;;;5.40;4.67;;;-1.80;95.10;;;;;;5054004;28;20468;-53
2022/03/01 02:22:05;;;;;;;6.07;5.03;;;-1.50;94.90;;;;;;5053726;28;20472;-54
2022/03/01 02:24:32;;;;;;;6.60;5.47;;;-1.20;94.10;;;;;;5054578;28;20460;-55
2022/03/01 02:27:02;;;;;;;6.70;5.40;;;-1.20;94.10;;;;;;5054320;28;20487;-54
2022/03/01 02:29:29;;;;;;;7.27;5.10;;;-1.10;93.60;;;;;;5053923;28;20948;-55
2022/03/01 02:31:58;;;;;;;6.13;4.70;;;-1.00;93.40;;;;;;5054210;28;20476;-55
2022/03/01 02:34:25;;;;;;;6.47;4.80;;;-0.90;93.30;;;;;;5054425;28;20518;-55
2022/03/01 02:36:52;;;;;;;6.57;4.50;;;-0.70;93.30;;;;;;5054492;28;20479;-55
2022/03/01 02:39:20;;;;;;;6.03;5.30;;;-0.70;93.10;;;;;;5054777;28;20469;-55
2022/03/01 02:41:47;;;;;;;8.00;5.27;;;-0.60;92.90;;;;;;5054518;28;20483;-55
2022/03/01 02:44:15;;;;;;;4.87;4.47;;;-0.80;92.60;;;;;;5054250;28;20890;-55
2022/03/01 02:46:42;;;;;;;6.53;4.97;;;-0.80;92.90;;;;;;5054181;28;20473;-54
2022/03/01 02:49:10;;;;;;;6.07;5.10;;;-0.70;93.00;;;;;;5053728;28;20483;-55
2022/03/01 02:51:37;;;;;;;7.30;5.30;;;-0.70;92.40;;;;;;5053947;28;20461;-55
2022/03/01 02:54:05;;;;;;;4.80;3.93;;;-0.90;93.10;;;;;;5053571;28;20515;-55
2022/03/01 02:56:34;;;;;;;6.17;4.40;;;-0.90;92.40;;;;;;5053185;28;20871;-55
2022/03/01 02:59:01;;;;;;;6.90;4.97;;;-1.10;92.30;;;;;;5053263;28;20498;-55
2022/03/01 03:01:29;;;;;;;7.47;5.20;;;-1.30;92.50;;;;;;5053831;28;20477;-55
2022/03/01 03:03:56;;;;;;;5.00;4.47;;;-1.80;93.00;;;;;;5054268;28;20501;-55
2022/03/01 03:06:24;;;;;;;7.20;5.70;;;-2.50;93.60;;;;;;5053834;28;20485;-54
2022/03/01 03:08:51;;;;;;;6.10;5.37;;;-2.90;94.10;;;;;;5053774;28;20918;-55
2022/03/01 03:11:18;;;;;;;5.90;5.00;;;-3.20;94.40;;;;;;5052643;28;20540;-55
2022/03/01 03:13:46;;;;;;;5.07;4.57;;;-3.30;95.10;;;;;;5052727;28;20538;-55
2022/03/01 03:16:13;;;;;;;8.03;4.80;;;-3.30;95.30;;;;;;5052732;28;20526;-55
2022/03/01 03:18:40;;;;;;;7.30;5.10;;;-3.00;95.30;;;;;;5052640;28;20484;-55
2022/03/01 03:21:08;;;;;;;6.13;5.10;;;-2.60;95.10;;;;;;5052585;28;20477;-56
2022/03/01 03:23:35;;;;;;;5.40;4.40;;;-2.30;94.60;;;;;;5052247;28;20940;-55
2022/03/01 03:26:02;;;;;;;5.07;4.30;;;-2.00;94.20;;;;;;5052043;28;20473;-55
2022/03/01 03:28:29;;;;;;;6.00;4.30;;;-1.80;93.80;;;;;;5052632;28;20469;-55
2022/03/01 03:30:57;;;;;;;7.57;5.00;;;-1.70;93.40;;;;;;5052215;28;20479;-55
2022/03/01 03:33:24;;;;;;;7.27;4.80;;;-1.70;93.00;;;;;;5052509;28;20473;-56
2022/03/01 03:35:51;;;;;;;4.80;4.40;;;-2.60;92.60;;;;;;5052267;28;21053;-54
2022/03/01 03:38:18;;;;;;;4.90;4.40;;;-2.40;93.40;;;;;;5052511;28;20813;-55
2022/03/01 03:40:45;;;;;;;7.47;4.70;;;-2.30;93.70;;;;;;5052420;28;20479;-55
2022/03/01 03:43:12;;;;;;;5.27;4.33;;;-2.50;93.70;;;;;;5052715;28;20867;-55
2022/03/01 03:45:39;;;;;;;6.73;5.50;;;-2.70;93.90;;;;;;5052572;28;20510;-55
2022/03/01 03:48:08;;;;;;;5.40;4.00;;;-2.80;94.20;;;;;;5052619;28;20479;-55
2022/03/01 03:50:35;;;;;;;6.07;4.33;;;-3.00;94.20;;;;;;5051555;28;20524;-55
2022/03/01 03:53:02;;;;;;;7.00;4.17;;;-3.20;94.70;;;;;;5051747;28;20481;-55
2022/03/01 03:55:28;;;;;;;6.80;5.40;;;-3.40;95.20;;;;;;5051797;28;20493;-56
2022/03/01 03:57:56;;;;;;;6.17;4.90;;;-3.50;96.20;;;;;;5052524;28;20477;-55
2022/03/01 04:00:23;;;;;;;6.10;4.57;;;-3.50;95.90;;;;;;5052206;28;20472;-55
2022/03/01 04:02:51;;;;;;;7.07;4.03;;;-3.20;96.10;;;;;;5051970;28;20707;-55
2022/03/01 04:05:20;;;;;;;7.03;5.43;;;-2.90;96.20;;;;;;5052151;28;20754;-55
2022/03/01 04:07:49;;;;;;;6.07;5.30;;;-2.60;95.70;;;;;;5052694;28;20482;-55
2022/03/01 04:10:17;;;;;;;5.67;4.70;;;-2.30;95.20;;;;;;5051685;28;20527;-55
2022/03/01 04:12:44;;;;;;;6.47;3.83;;;-2.10;94.60;;;;;;5051889;28;20500;-55
2022/03/01 04:15:12;;;;;;;5.33;4.53;;;-1.90;94.20;;;;;;5051459;28;20848;-56
2022/03/01 04:17:40;;;;;;;8.87;5.20;;;-1.80;93.90;;;;;;5051499;28;20479;-56
2022/03/01 04:20:08;;;;;;;5.43;4.90;;;-1.70;93.90;;;;;;5051521;28;20475;-56
2022/03/01 04:22:37;;;;;;;5.93;4.73;;;-1.70;93.60;;;;;;5051995;28;20452;-56
2022/03/01 04:25:05;;;;;;;6.23;5.57;;;-2.00;92.60;;;;;;5051498;28;20458;-55
2022/03/01 04:27:32;;;;;;;6.47;4.40;;;-2.30;92.80;;;;;;5051399;28;20448;-56
2022/03/01 04:29:59;;;;;;;4.60;4.10;;;-2.20;93.30;;;;;;5051115;28;20482;-53
2022/03/01 04:32:26;;;;;;;4.13;3.67;;;-2.10;93.50;;;;;;5051413;28;20534;-54
2022/03/01 04:34:53;;;;;;;5.33;4.27;;;-2.20;93.00;;;;;;5051216;28;20572;-54
2022/03/01 04:37:20;;;;;;;4.63;4.17;;;-2.10;93.50;;;;;;5051638;28;20476;-55
2022/03/01 04:39:49;;;;;;;4.70;3.73;;;-2.00;93.80;;;;;;5051546;28;20444;-55
2022/03/01 04:42:16;;;;;;;7.23;3.93;;;-2.10;93.50;;;;;;5051544;28;20495;-55
2022/03/01 04:44:43;;;;;;;5.00;4.47;;;-2.00;93.30;;;;;;5051476;28;20494;-55
2022/03/01 04:47:10;;;;;;;5.27;3.80;;;-2.10;92.80;;;;;;5051823;28;20519;-55
2022/03/01 04:49:37;;;;;;;4.93;3.70;;;-2.00;93.10;;;;;;5051309;28;20879;-55
2022/03/01 04:52:05;;;;;;;9.57;5.70;;;-1.90;93.30;;;;;;5051088;28;20470;-54
2022/03/01 04:54:32;;;;;;;7.53;4.97;;;-1.80;93.10;;;;;;5051277;28;20907;-55
2022/03/01 04:57:00;;;;;;;4.23;3.73;;;-2.40;92.20;;;;;;5051354;28;20480;-55
2022/03/01 04:59:27;;;;;;;9.77;5.10;;;-3.20;93.40;;;;;;5050915;28;20706;-56
2022/03/01 05:01:54;;;;;;;5.17;4.70;;;-3.60;94.20;;;;;;5052987;28;20482;-55
2022/03/01 05:04:22;;;;;;;6.80;4.60;;;-3.90;94.70;;;;;;5055868;28;20522;-55
2022/03/01 05:06:49;;;;;;;4.53;4.03;;;-3.90;95.20;;;;;;5056089;28;20446;-55
2022/03/01 05:09:16;;;;;;;11.83;8.30;;;-3.90;95.10;;;;;;5055695;28;20451;-55
2022/03/01 05:11:43;;;;;;;57.10;36.90;;;-3.70;95.00;;;;;;5056405;28;20480;-55
2022/03/01 05:14:11;;;;;;;29.80;22.07;;;-3.30;95.40;;;;;;5055312;28;20903;-55
2022/03/01 05:16:38;;;;;;;15.03;12.47;;;-3.00;95.20;;;;;;5055677;28;20888;-56
2022/03/01 05:19:06;;;;;;;33.40;27.83;;;-2.70;94.70;;;;;;5055920;28;20947;-55
2022/03/01 05:21:34;;;;;;;34.40;31.10;;;-2.90;93.00;;;;;;5055561;28;20501;-55
2022/03/01 05:24:01;;;;;;;13.37;11.70;;;-2.80;92.90;;;;;;5055592;28;20497;-55
2022/03/01 05:26:28;;;;;;;6.27;5.67;;;-2.70;92.60;;;;;;5055435;28;20521;-55
2022/03/01 05:28:55;;;;;;;5.27;4.80;;;-2.70;92.50;;;;;;5055649;28;20484;-55
2022/03/01 05:31:23;;;;;;;5.70;4.67;;;-2.40;92.10;;;;;;5055498;28;20468;-55
2022/03/01 05:33:52;;;;;;;4.30;3.80;;;-2.60;92.40;;;;;;5055297;28;20484;-55
2022/03/01 05:36:20;;;;;;;4.97;4.33;;;-2.70;92.60;;;;;;5055758;28;20450;-56
2022/03/01 05:38:47;;;;;;;5.17;4.67;;;-2.60;92.60;;;;;;5054534;28;20452;-54
2022/03/01 05:41:14;;;;;;;23.33;20.83;;;-3.20;92.10;;;;;;5055143;28;20492;-55
2022/03/01 05:43:41;;;;;;;12.77;10.00;;;-3.00;93.00;;;;;;5055169;28;20481;-55
2022/03/01 05:46:08;;;;;;;10.27;9.13;;;-2.80;93.30;;;;;;5055217;28;20956;-55
2022/03/01 05:48:36;;;;;;;9.77;7.27;;;-2.60;93.10;;;;;;5055157;28;20477;-54
2022/03/01 05:51:04;;;;;;;10.40;7.43;;;-2.50;92.90;;;;;;5054827;28;20469;-55
2022/03/01 05:53:31;;;;;;;5.10;4.43;;;-2.50;92.80;;;;;;5054932;28;20437;-55
2022/03/01 05:55:58;;;;;;;8.10;4.30;;;-2.40;92.90;;;;;;5054977;28;20509;-55
2022/03/01 05:58:25;;;;;;;5.60;4.60;;;-2.30;93.00;;;;;;5054993;28;20468;-55
2022/03/01 06:00:52;;;;;;;5.97;4.87;;;-2.20;93.00;;;;;;5054379;28;20476;-56
2022/03/01 06:03:19;;;;;;;7.10;5.10;;;-2.10;93.10;;;;;;5054786;28;20464;-55
2022/03/01 06:05:47;;;;;;;5.67;3.87;;;-2.10;93.00;;;;;;5054546;28;20487;-56
2022/03/01 06:08:14;;;;;;;6.50;4.53;;;-1.90;93.00;;;;;;5054584;28;20573;-56
2022/03/01 06:10:41;;;;;;;4.23;3.30;;;-1.80;93.00;;;;;;5054034;28;20470;-56
2022/03/01 06:13:07;;;;;;;6.83;4.60;;;-1.70;92.80;;;;;;5054018;28;20478;-56
2022/03/01 06:15:35;;;;;;;4.53;4.10;;;-1.60;92.80;;;;;;5053723;28;21070;-56
2022/03/01 06:18:01;;;;;;;4.97;4.13;;;-1.60;92.50;;;;;;5054252;28;20474;-55
2022/03/01 06:20:28;;;;;;;6.93;4.63;;;-1.60;92.20;;;;;;5053536;28;20477;-55
2022/03/01 06:22:57;;;;;;;9.90;6.50;;;-2.40;91.30;;;;;;5054057;28;20489;-55
2022/03/01 06:25:24;;;;;;;6.97;5.20;;;-2.40;92.70;;;;;;5054195;28;20489;-55
2022/03/01 06:27:52;;;;;;;6.30;5.67;;;-2.50;93.40;;;;;;5053978;28;20473;-56
2022/03/01 06:30:19;;;;;;;10.27;7.20;;;-2.60;94.00;;;;;;5053754;28;20861;-55
2022/03/01 06:32:46;;;;;;;9.27;8.37;;;-2.70;93.90;;;;;;5053661;28;20478;-56
2022/03/01 06:35:13;;;;;;;14.63;8.93;;;-3.50;94.80;;;;;;5054781;28;20930;-56
2022/03/01 06:37:40;;;;;;;9.77;6.90;;;-4.20;95.50;;;;;;5054338;28;20473;-57
2022/03/01 06:40:09;;;;;;;7.90;6.10;;;-4.30;96.30;;;;;;5053905;28;20480;-56
2022/03/01 06:42:36;;;;;;;8.40;5.30;;;-4.30;96.20;;;;;;5054474;28;20472;-57
2022/03/01 06:45:04;;;;;;;5.70;5.10;;;-4.50;95.80;;;;;;5053873;28;20489;-56
2022/03/01 06:47:31;;;;;;;7.20;4.30;;;-4.40;96.00;;;;;;5054022;28;20477;-55
2022/03/01 06:49:58;;;;;;;5.00;4.50;;;-4.00;95.90;;;;;;5053996;28;20465;-56
2022/03/01 06:52:24;;;;;;;5.80;4.90;;;-3.60;95.30;;;;;;5053643;28;20484;-57
2022/03/01 06:54:51;;;;;;;5.07;4.33;;;-3.40;94.60;;;;;;5053689;28;20509;-56
2022/03/01 06:57:20;;;;;;;7.93;4.90;;;-3.10;94.10;;;;;;5053049;28;20481;-56
2022/03/01 06:59:46;;;;;;;5.23;4.73;;;-2.90;94.10;;;;;;5053349;28;20487;-56
2022/03/01 07:02:13;;;;;;;4.60;4.17;;;-2.80;93.40;;;;;;5053233;28;20477;-56
2022/03/01 07:04:41;;;;;;;8.67;4.70;;;-3.10;92.40;;;;;;5053501;28;20498;-56
2022/03/01 07:07:09;;;;;;;6.33;4.83;;;-3.20;94.20;;;;;;5053123;28;20505;-56
2022/03/01 07:09:35;;;;;;;7.47;5.40;;;-3.60;95.70;;;;;;5052955;28;20536;-58
2022/03/01 07:12:03;;;;;;;6.50;5.80;;;-3.70;96.20;;;;;;5052970;28;20867;-56
2022/03/01 07:14:31;;;;;;;7.70;6.60;;;-3.50;96.00;;;;;;5053435;28;20559;-58
2022/03/01 07:16:58;;;;;;;8.50;6.37;;;-3.30;95.60;;;;;;5053989;28;20470;-57
2022/03/01 07:19:25;;;;;;;19.77;13.10;;;-3.20;95.20;;;;;;5053137;28;20473;-56
2022/03/01 07:21:52;;;;;;;31.67;17.23;;;-2.90;95.10;;;;;;5052816;28;20968;-56
2022/03/01 07:24:19;;;;;;;21.73;13.70;;;-3.10;94.10;;;;;;5052442;28;20495;-56
2022/03/01 07:26:46;;;;;;;21.47;12.00;;;-3.30;94.20;;;;;;5053020;28;20489;-56
2022/03/01 07:29:13;;;;;;;25.70;17.03;;;-3.30;94.10;;;;;;5052961;28;20469;-57
2022/03/01 07:31:41;;;;;;;44.53;26.30;;;-3.00;94.40;;;;;;5052673;28;20477;-56
2022/03/01 07:34:09;;;;;;;11.17;6.90;;;-2.80;94.20;;;;;;5052425;28;20473;-57
2022/03/01 07:36:36;;;;;;;7.00;5.60;;;-2.70;93.80;;;;;;5053133;28;20997;-56
2022/03/01 07:39:03;;;;;;;13.23;6.53;;;-2.40;93.70;;;;;;5052849;28;20480;-56
2022/03/01 07:41:30;;;;;;;6.93;4.33;;;-2.20;93.30;;;;;;5053363;28;20479;-56
2022/03/01 07:43:57;;;;;;;6.30;4.43;;;-2.10;92.80;;;;;;5052313;28;20525;-56
2022/03/01 07:46:24;;;;;;;8.07;6.37;;;-1.90;92.50;;;;;;5051486;28;20477;-57
2022/03/01 07:48:52;;;;;;;7.40;6.33;;;-1.90;92.10;;;;;;5052157;28;20478;-56
2022/03/01 07:51:19;;;;;;;9.67;5.13;;;-2.10;91.50;;;;;;5052704;28;20473;-56
2022/03/01 07:53:46;;;;;;;16.27;13.43;;;-2.10;92.20;;;;;;5051774;28;20479;-57
2022/03/01 07:56:14;;;;;;;15.83;11.10;;;-2.80;91.80;;;;;;5051694;28;20562;-56
2022/03/01 07:58:41;;;;;;;10.47;6.80;;;-3.10;92.20;;;;;;5052348;28;20532;-56
2022/03/01 08:01:08;;;;;;;5.57;5.00;;;-2.90;92.90;;;;;;5052329;28;20460;-56
2022/03/01 08:03:35;;;;;;;9.57;6.57;;;-2.60;93.00;;;;;;5052115;28;20836;-56
2022/03/01 08:06:03;;;;;;;7.37;5.80;;;-2.90;91.90;;;;;;5052204;28;20478;-55
2022/03/01 08:08:30;;;;;;;18.73;9.30;;;-2.80;92.40;;;;;;5051522;28;20480;-56
2022/03/01 08:10:57;;;;;;;13.37;7.40;;;-3.30;94.50;;;;;;5051505;28;20478;-56
2022/03/01 08:13:25;;;;;;;10.73;8.97;;;-3.40;95.10;;;;;;5051737;28;20954;-55
2022/03/01 08:15:52;;;;;;;7.33;6.37;;;-3.90;95.90;;;;;;5051424;28;20481;-57
2022/03/01 08:18:19;;;;;;;7.77;6.60;;;-4.00;96.30;;;;;;5051144;28;20955;-55
2022/03/01 08:20:46;;;;;;;7.10;5.40;;;-4.00;95.90;;;;;;5050511;28;20480;-57
2022/03/01 08:23:15;;;;;;;13.90;6.00;;;-4.00;95.40;;;;;;5051761;28;20441;-56
2022/03/01 08:25:42;;;;;;;10.17;6.33;;;-4.00;95.30;;;;;;5052007;28;20493;-55
2022/03/01 08:28:09;;;;;;;8.23;5.70;;;-4.00;94.70;;;;;;5051917;28;20480;-56
2022/03/01 08:30:36;;;;;;;9.67;7.47;;;-4.10;94.70;;;;;;5051917;28;20476;-55
2022/03/01 08:33:03;;;;;;;12.73;8.27;;;-3.70;95.30;;;;;;5052575;28;20445;-56
2022/03/01 08:35:32;;;;;;;7.60;5.70;;;-3.40;94.90;;;;;;5052616;28;20524;-56
2022/03/01 08:38:02;;;;;;;9.10;6.53;;;-3.30;94.00;;;;;;5055748;28;20445;-57
2022/03/01 08:40:32;;;;;;;5.90;4.67;;;-3.00;94.00;;;;;;5055679;28;20499;-57
2022/03/01 08:42:59;;;;;;;7.00;4.23;;;-2.90;93.90;;;;;;5055396;28;20501;-56
2022/03/01 08:45:26;;;;;;;6.20;5.60;;;-3.00;94.30;;;;;;5055472;28;20876;-56
2022/03/01 08:47:53;;;;;;;11.47;5.40;;;-2.90;94.50;;;;;;5055591;28;20487;-55
2022/03/01 08:50:20;;;;;;;6.40;4.50;;;-2.70;94.50;;;;;;5055096;28;20888;-55
2022/03/01 08:52:48;;;;;;;9.77;6.37;;;-2.60;94.70;;;;;;5055405;28;20500;-58
2022/03/01 08:55:15;;;;;;;11.30;6.87;;;-2.60;94.20;;;;;;5055929;28;20577;-56
2022/03/01 08:57:44;;;;;;;11.73;6.43;;;-2.50;93.60;;;;;;5054517;28;20684;-55
2022/03/01 09:00:14;;;;;;;5.53;3.87;;;-2.60;93.50;;;;;;5054790;28;20547;-55
2022/03/01 09:02:41;;;;;;;15.00;11.03;;;-2.50;94.50;;;;;;5054781;28;20472;-56
2022/03/01 09:05:09;;;;;;;5.83;3.97;;;-2.20;94.80;;;;;;5055358;28;20493;-56
2022/03/01 09:07:37;;;;;;;5.60;4.87;;;-2.00;95.30;;;;;;5055324;28;20525;-56
2022/03/01 09:10:06;;;;;;;8.83;6.30;;;-1.70;95.00;;;;;;5055684;28;20532;-56
2022/03/01 09:12:33;;;;;;;10.40;5.70;;;-1.70;94.40;;;;;;5055550;28;20974;-57
2022/03/01 09:15:01;;;;;;;15.63;8.20;;;-1.60;94.20;;;;;;5055878;28;20573;-56
2022/03/01 09:17:28;;;;;;;12.10;8.60;;;-1.50;93.80;;;;;;5056032;28;20863;-56
2022/03/01 09:19:55;;;;;;;8.20;6.40;;;-1.30;93.50;;;;;;5055746;28;20851;-56
2022/03/01 09:22:22;;;;;;;6.27;4.30;;;-1.10;93.00;;;;;;5056370;28;20476;-56
2022/03/01 09:24:49;;;;;;;6.77;4.73;;;-0.90;92.30;;;;;;5056124;28;20995;-57
2022/03/01 09:27:16;;;;;;;10.30;5.30;;;-0.80;91.80;;;;;;5055833;28;20478;-58
2022/03/01 09:29:44;;;;;;;4.37;3.27;;;-0.60;91.80;;;;;;5056211;28;20482;-57
2022/03/01 09:32:13;;;;;;;2.90;2.53;;;-0.90;92.10;;;;;;5056451;28;20451;-55
2022/03/01 09:34:40;;;;;;;4.47;3.30;;;-1.00;92.00;;;;;;5056363;28;20467;-56
2022/03/01 09:37:07;;;;;;;3.10;2.63;;;-0.80;91.10;;;;;;5056109;28;20518;-57
2022/03/01 09:39:34;;;;;;;3.80;2.73;;;-0.60;90.40;;;;;;5055926;28;20494;-56
2022/03/01 09:42:01;;;;;;;2.93;2.63;;;-0.60;90.40;;;;;;5056086;28;20972;-57
2022/03/01 09:44:30;;;;;;;6.50;3.50;;;-0.70;89.30;;;;;;5055254;28;20490;-56
2022/03/01 09:46:57;;;;;;;3.20;2.87;;;-0.40;89.30;;;;;;5055135;28;20468;-56
2022/03/01 09:49:25;;;;;;;6.23;3.70;;;-0.20;88.00;;;;;;5055533;28;20948;-57
2022/03/01 09:51:52;;;;;;;8.37;3.70;;;-0.10;88.40;;;;;;5055468;28;20899;-56
2022/03/01 09:54:19;;;;;;;6.40;3.80;;;0.00;89.80;;;;;;5055728;28;20505;-56
2022/03/01 09:56:46;;;;;;;5.80;4.20;;;-0.20;90.10;;;;;;5055404;28;20518;-56
2022/03/01 09:59:13;;;;;;;3.77;3.40;;;-0.20;89.40;;;;;;5055453;28;20473;-56
2022/03/01 10:01:48;;;;;;;5.50;4.80;;;-0.20;90.90;;;;;;5055091;28;20477;-57
2022/03/01 10:04:15;;;;;;;3.97;3.43;;;-0.10;90.30;;;;;;5055641;28;20463;-56
2022/03/01 10:06:45;;;;;;;7.50;3.03;;;-0.10;90.70;;;;;;5055535;28;20964;-55
2022/03/01 10:09:14;;;;;;;6.00;4.17;;;0.00;90.80;;;;;;5055278;28;20475;-56
2022/03/01 10:11:42;;;;;;;4.93;3.10;;;0.00;90.00;;;;;;5054278;28;20490;-56
2022/03/01 10:14:11;;;;;;;3.60;3.07;;;-0.20;89.40;;;;;;5054229;28;20491;-56
2022/03/01 10:16:41;;;;;;;5.90;3.50;;;-0.10;88.10;;;;;;5054488;28;20488;-56
2022/03/01 10:19:17;;;;;;;7.80;5.07;;;0.10;87.10;;;;;;5055273;28;20445;-57
2022/03/01 10:21:48;;;;;;;6.87;4.10;;;0.40;88.70;;;;;;5055297;28;20469;-57
2022/03/01 10:24:19;;;;;;;4.30;3.00;;;0.70;89.10;;;;;;5055032;28;20459;-56
2022/03/01 10:26:49;;;;;;;3.17;2.77;;;1.00;88.60;;;;;;5055082;28;20472;-56
2022/03/01 10:29:17;;;;;;;3.30;2.93;;;1.30;89.70;;;;;;5055331;28;20476;-57
2022/03/01 10:31:49;;;;;;;3.73;3.03;;;1.50;89.40;;;;;;5055020;28;20482;-56
2022/03/01 10:34:16;;;;;;;3.20;2.90;;;1.30;87.50;;;;;;5055091;28;20477;-56
2022/03/01 10:36:47;;;;;;;2.87;2.67;;;1.40;88.90;;;;;;5054829;28;20516;-55
2022/03/01 10:39:16;;;;;;;4.63;3.30;;;1.60;88.60;;;;;;5054733;28;20441;-56
2022/03/01 10:41:44;;;;;;;5.40;3.30;;;1.80;87.20;;;;;;5055205;28;20449;-57
2022/03/01 10:44:15;;;;;;;3.73;3.40;;;2.00;86.30;;;;;;5054916;28;20902;-56
2022/03/01 10:46:46;;;;;;;4.30;3.37;;;2.20;86.10;;;;;;5055363;28;20450;-56
2022/03/01 10:49:15;;;;;;;4.00;3.50;;;2.30;87.30;;;;;;5054957;28;20940;-55
2022/03/01 10:51:52;;;;;;;4.27;3.50;;;2.00;81.50;;;;;;5054649;28;20491;-56
2022/03/01 10:54:27;;;;;;;5.30;3.20;;;1.80;80.40;;;;;;5055389;28;20509;-56
2022/03/01 10:56:55;;;;;;;4.03;3.10;;;1.70;81.10;;;;;;5054543;28;20556;-57
2022/03/01 10:59:24;;;;;;;4.17;3.73;;;1.60;83.70;;;;;;5053153;28;20452;-57
2022/03/01 11:01:51;;;;;;;6.27;3.67;;;1.60;83.00;;;;;;5055001;28;20446;-56
2022/03/01 11:04:18;;;;;;;4.90;2.67;;;1.70;84.20;;;;;;5054447;28;21023;-55
2022/03/01 11:06:48;;;;;;;3.93;3.07;;;1.80;76.90;;;;;;5054700;28;20479;-56
2022/03/01 11:09:17;;;;;;;2.80;2.57;;;1.80;78.70;;;;;;5054856;28;20479;-57
2022/03/01 11:11:45;;;;;;;3.20;2.90;;;1.90;76.40;;;;;;5054507;28;20897;-55
2022/03/01 11:14:15;;;;;;;3.60;3.30;;;2.10;80.60;;;;;;5054561;28;20503;-55
2022/03/01 11:17:00;;;;;;;3.33;2.63;;;2.30;76.90;;;;;;5054203;28;21003;-56
2022/03/01 11:19:41;;;;;;;4.43;2.87;;;2.50;72.00;;;;;;5052798;28;20532;-57
2022/03/01 11:22:19;;;;;;;3.30;2.30;;;2.60;71.80;;;;;;5053129;28;20477;-55
2022/03/01 11:24:48;;;;;;;5.33;2.83;;;2.70;69.60;;;;;;5052933;28;21031;-55
2022/03/01 11:27:20;;;;;;;3.30;2.77;;;2.70;67.40;;;;;;5052776;28;20437;-56
2022/03/01 11:29:47;;;;;;;3.53;3.00;;;2.70;67.80;;;;;;5052596;28;20959;-56
2022/03/01 11:32:16;;;;;;;3.97;3.63;;;2.80;67.60;;;;;;5046957;28;20467;-57
2022/03/01 11:34:44;;;;;;;5.30;3.73;;;2.80;67.10;;;;;;5043536;28;20458;-56
2022/03/01 11:37:16;;;;;;;6.63;4.40;;;2.70;71.60;;;;;;5044875;28;20559;-55
2022/03/01 11:39:44;;;;;;;3.50;3.00;;;2.80;75.20;;;;;;5042658;28;20470;-56
2022/03/01 11:42:20;;;;;;;5.17;3.50;;;3.00;74.90;;;;;;5044843;28;20482;-56
2022/03/01 11:44:50;;;;;;;5.83;3.70;;;3.10;76.10;;;;;;5044604;28;20542;-56
2022/03/01 11:47:26;;;;;;;4.33;3.70;;;3.30;74.40;;;;;;5045482;28;20467;-56
2022/03/01 11:49:53;;;;;;;6.57;4.40;;;3.10;72.00;;;;;;5042092;28;20497;-55
2022/03/01 11:52:22;;;;;;;3.87;3.33;;;3.00;76.00;;;;;;5036654;28;20478;-55
2022/03/01 11:54:51;;;;;;;4.80;3.90;;;3.10;74.00;;;;;;5033617;28;20486;-55
2022/03/01 11:57:24;;;;;;;4.87;3.70;;;3.20;75.00;;;;;;5034105;28;20475;-56
2022/03/01 11:59:51;;;;;;;5.20;4.17;;;3.30;79.00;;;;;;5033559;28;20967;-55
2022/03/01 12:02:19;;;;;;;5.00;4.20;;;3.30;74.90;;;;;;5033519;28;20484;-54
2022/03/01 12:04:47;;;;;;;5.03;4.20;;;3.30;72.30;;;;;;5033686;28;20757;-56
2022/03/01 12:07:18;;;;;;;4.77;3.93;;;3.50;74.10;;;;;;5033105;28;20440;-56
2022/03/01 12:09:55;;;;;;;3.80;3.50;;;3.50;72.70;;;;;;5032861;28;20488;-55
2022/03/01 12:12:32;;;;;;;4.10;3.23;;;3.70;77.60;;;;;;5033311;28;20435;-55
2022/03/01 12:14:59;;;;;;;4.70;4.20;;;3.80;74.10;;;;;;5032331;28;20477;-55
2022/03/01 12:17:26;;;;;;;5.73;4.10;;;4.00;74.60;;;;;;5031095;28;20514;-55
2022/03/01 12:20:00;;;;;;;4.80;4.30;;;4.00;72.40;;;;;;5030826;28;20867;-55
2022/03/01 12:22:29;;;;;;;6.40;4.40;;;4.20;71.80;;;;;;5030875;28;20444;-55
2022/03/01 12:24:57;;;;;;;6.47;4.17;;;4.20;71.80;;;;;;5030135;28;20472;-54
2022/03/01 12:27:30;;;;;;;4.20;3.80;;;4.30;74.50;;;;;;5029357;28;20533;-55
2022/03/01 12:30:04;;;;;;;5.50;3.80;;;4.20;73.80;;;;;;5029468;28;20440;-55
2022/03/01 12:32:34;;;;;;;4.57;3.87;;;4.20;72.30;;;;;;5033732;28;20448;-55
2022/03/01 12:35:02;;;;;;;4.83;4.27;;;4.20;73.10;;;;;;5034262;28;20488;-56
2022/03/01 12:37:30;;;;;;;3.53;3.20;;;4.20;72.90;;;;;;5033617;28;20492;-55
2022/03/01 12:39:57;;;;;;;4.30;3.67;;;4.40;74.30;;;;;;5033637;28;20469;-54
2022/03/01 12:42:30;;;;;;;5.83;3.87;;;4.60;73.60;;;;;;5033506;28;20484;-54
2022/03/01 12:44:57;;;;;;;3.63;3.30;;;4.70;72.70;;;;;;5033928;28;20560;-54
2022/03/01 12:47:24;;;;;;;5.73;3.63;;;4.70;70.90;;;;;;5033848;28;20477;-53
2022/03/01 12:49:51;;;;;;;3.87;3.47;;;4.80;73.20;;;;;;5033640;28;20479;-54
2022/03/01 12:52:20;;;;;;;3.70;3.40;;;4.80;73.10;;;;;;5033633;28;20449;-53
2022/03/01 12:54:48;;;;;;;3.83;3.53;;;5.00;73.00;;;;;;5034027;28;20465;-53